Station info - map view · info · telemetry · weather · raw · status · beacons · messages · bulletins · browse · moving · my account
Callsign, ship name or locator: Clear       
It is possible to search using wildcards (*?) after a prefix. Example: OH*
APRS station SQ3H-9 - show graphs
Map loading...
Comment: testy Launchonlh HG-UV98 / 145.550
Mic-E message: En route
Location: 50°14.88' N 14°22.10' E - locator JO70EF49EM - show map - static map
2.1 miles Northwest bearing 298° from Odolena Voda, Středočeský Kraj, Czech Republic [?]
6.2 miles West bearing 253° from Libiš, Středočeský Kraj, Czech Republic
11.3 miles North bearing 348° from Prague, Hlavní Mesto Praha, Czech Republic
61.9 miles Southeast bearing 153° from Dresden, Direktionsbezirk Dresden, Saxony, Germany
Last position: 2021-03-02 15:09:35 EST (6h14m ago)
2021-03-02 21:09:35 CET local time at Odolena Voda, Czech Republic [?]
Altitude: 817 ft
Course:
Speed: 0 MPH
Device: Unknown: Other Mic-E
Last path: SQ3H-9>UP1T88 via OK1TEC-3*,WIDE2-1,qAR,OK1KZE-1 (good)
Positions stored: 3248
Packet rate: 114 seconds between packets on average during 5578 seconds.
Other SSIDs: SQ3H SQ3H-1 SQ3H-14 SQ3H-7
Stations near current position of SQ3H-9 - show more
callsign distance last heard - EST      callsign distance last heard - EST
LKVO2.5 miles 151°2021-03-02 08:03:03 OK1FET-56.7 miles 347°2021-03-02 21:17:58
OK1TPF7.7 miles 154°2021-02-21 09:27:21 OK9DMR-N9.5 miles 152°2021-02-11 14:49:08
OK1BOA-99.6 miles 172°2021-02-20 12:17:45 FW458810.1 miles 174°2021-03-02 21:15:34
OK1VRA-710.1 miles 176°2021-02-11 05:34:24 OK1XED-1010.1 miles 216°2021-02-20 11:32:47
OK1XED-1510.1 miles 216°2021-03-02 20:52:32 OK1XED10.1 miles 216°2021-02-21 21:41:09
APOTC110.8 miles 205°2021-02-23 22:29:56 LKPR-910.8 miles 205°2021-03-02 20:25:37
LKVR-910.8 miles 205°2021-02-25 04:01:50 PH-HXI10.8 miles 207°2021-02-02 02:12:38
LKPR11.2 miles 205°2021-03-02 21:12:09 LKPR-warn11.2 miles 205°2021-03-02 21:12:25
OK1ZXS-1511.3 miles 135°2021-03-02 20:46:29 OK0HCS B11.5 miles 175°2021-03-02 21:06:28
OK0HCS-B11.5 miles 175°2021-03-02 21:06:38 OK0DBY-ND11.6 miles 175°2021-03-02 21:07:36
Stations which heard SQ3H-9 directly on radio –
callsign pkts first heard - EST last heard longest (tx => rx) longest at - EST
SR3NRI 4 2021-03-02 07:59:29 2021-03-02 08:14:04 JO82HC > JO82EF 13.6 miles 307° 2021-03-02 08:14:04
SR3NWY 3 2021-03-02 06:46:58 2021-03-02 07:27:26 JO82PK > JO82SB 26.9 miles 158° 2021-03-02 06:46:58
SR3DPN 17 2021-03-02 06:50:17 2021-03-02 07:53:06 JO82PJ > JO82LJ 14.2 miles 270° 2021-03-02 06:50:17
SR6NWS 1 2021-03-02 09:46:53 2021-03-02 09:46:53 JO71WM > JO80FQ 64.8 miles 155° 2021-03-02 09:46:53
OK1KZE-1 18 2021-03-02 13:46:29 2021-03-02 14:48:28 JO70LK > JN79FX 40.1 miles 215° 2021-03-02 13:46:29
OK1TEC-3 3 2021-03-02 14:46:53 2021-03-02 15:09:35 JO70EF > JO60WQ 39.1 miles 325° 2021-03-02 14:46:53
OK0BBK-2 3 2021-03-02 13:32:36 2021-03-02 13:49:03 JO70LK > JO70PO 18.3 miles 50° 2021-03-02 13:49:03
SQ3KNO 1 2021-03-02 07:57:26 2021-03-02 07:57:26 JO82IH > JO82EH 12.4 miles 268° 2021-03-02 07:57:26
SP3LOZ 10 2021-03-02 07:49:59 2021-03-02 08:02:08 JO82IG > JO82IJ 8.5 miles 21° 2021-03-02 08:02:08
SR3NKI 19 2021-03-02 08:30:09 2021-03-02 08:50:29 JO81DT > JO81HU 11.6 miles 78° 2021-03-02 08:50:29
SP2MKR-4 3 2021-03-02 04:58:38 2021-03-02 05:47:44 JO83VA > JO93AE 13.5 miles 44° 2021-03-02 05:47:44
DB0SPB 31 2021-03-02 10:53:18 2021-03-02 13:08:45 JO71OF > JO70IX 29.7 miles 234° 2021-03-02 10:53:18
SR2DDU 17 2021-03-02 06:01:19 2021-03-02 06:26:50 JO82UV > JO82VP 18.3 miles 162° 2021-03-02 06:01:19
SP2GG-4 40 2021-03-02 02:20:09 2021-03-02 06:07:22 JO93AB > JO83VA 13.7 miles 252° 2021-03-02 05:20:05
SR3NZG 2 2021-03-02 09:26:37 2021-03-02 09:51:16 JO71VM > JO71SW 30.5 miles 338° 2021-03-02 09:51:16
SR3NPB 21 2021-03-02 06:31:35 2021-03-02 07:25:08 JO82SN > JO82PL 12.8 miles 243° 2021-03-02 06:32:12
OK0BAD-2 7 2021-03-02 12:52:01 2021-03-02 14:41:00 JO70KV > JN79AS 85.0 miles 205° 2021-03-02 12:52:01
OK0DJ-1 39 2021-03-02 11:52:21 2021-03-02 14:45:56 JO70FD > JO70LR 46.6 miles 27° 2021-03-02 14:29:14
OE3VPA-10 1 2021-03-02 13:57:25 2021-03-02 13:57:25 JO70KI > JN78KS 108.7 miles 180° 2021-03-02 13:57:25
DB0OLL 2 2021-03-02 12:28:39 2021-03-02 12:38:18 JO71MB > JO71IC 14.3 miles 273° 2021-03-02 12:28:39
OK1TEB-1 3 2021-03-02 13:33:57 2021-03-02 13:42:43 JO70LL > JO70MQ 14.1 miles 8° 2021-03-02 13:42:43
SP3GW-1 1 2021-03-02 06:27:30 2021-03-02 06:27:30 JO82TO > JO82NO 20.6 miles 275° 2021-03-02 06:27:30
SR2DBM 59 2021-03-02 02:48:02 2021-03-02 05:22:34 JO93BB > JO93BD 5.8 miles 19° 2021-03-02 05:22:34
SR3NNV 3 2021-03-02 07:27:02 2021-03-02 07:57:26 JO82OI > JO82CJ 43.3 miles 271° 2021-03-02 07:27:02
SR3DPI 10 2021-03-02 01:21:34 2021-03-02 01:29:00 JO83JD > JO83JD 1.2 miles 278° 2021-03-02 01:29:00

Only position packets which were originated by the station are shown here. The range statistics show some extra long hops, because some digipeaters do not correctly add themselves to the digipeater path. Please check the raw packets.
About this site
This page shows real-time information collected from the Automatic Position Reporting System Internet network (APRS-IS). APRS is used by amateur (ham) radio operators to transmit real-time position information, weather data, telemetry and messages over the radio. A vehicle equipped with a GPS receiver, a VHF transmitter or HF transceiver and a small computer device called a tracker transmits it's location, speed and course in a small data packet, which is then received by a nearby iGate receiving site which forwards the packet on the Internet. Systems connected to the Internet can send information on the APRS-IS without a radio transmitter, or collect and display information transmitted anywhere in the world.
User guide · FAQ · Blog · Discussion group · Linking to aprs.fi · AIS sites · Service status · Database statistics · Advertising on aprs.fi · Technical details · API · Change log · Planned changes · Credits and thanks · Terms Of Service · iPhone/iPad APRS